sensor_id;sensor_type;location;lat;lon;timestamp;temperature;humidity
14682;DHT22;7429;52.498;13.480;2023-07-31T00:01:46;16.50;99.90
14682;DHT22;7429;52.498;13.480;2023-07-31T00:04:49;16.40;99.90
14682;DHT22;7429;52.498;13.480;2023-07-31T00:07:52;16.30;99.90
14682;DHT22;7429;52.498;13.480;2023-07-31T00:10:58;16.20;99.90
14682;DHT22;7429;52.498;13.480;2023-07-31T00:14:01;16.30;99.90
14682;DHT22;7429;52.498;13.480;2023-07-31T00:17:04;16.30;99.90
14682;DHT22;7429;52.498;13.480;2023-07-31T00:20:09;16.30;99.90
14682;DHT22;7429;52.498;13.480;2023-07-31T00:23:12;16.30;99.90
14682;DHT22;7429;52.498;13.480;2023-07-31T00:26:17;16.30;99.90
14682;DHT22;7429;52.498;13.480;2023-07-31T00:29:20;16.30;99.90
14682;DHT22;7429;52.498;13.480;2023-07-31T00:32:25;16.30;99.90
14682;DHT22;7429;52.498;13.480;2023-07-31T00:35:29;16.30;99.90
14682;DHT22;7429;52.498;13.480;2023-07-31T00:38:33;16.20;99.90
14682;DHT22;7429;52.498;13.480;2023-07-31T00:41:38;16.20;99.90
14682;DHT22;7429;52.498;13.480;2023-07-31T00:44:41;16.20;99.90
14682;DHT22;7429;52.498;13.480;2023-07-31T00:47:44;16.20;99.90
14682;DHT22;7429;52.498;13.480;2023-07-31T00:50:47;16.20;99.90
14682;DHT22;7429;52.498;13.480;2023-07-31T00:53:51;16.30;99.90
14682;DHT22;7429;52.498;13.480;2023-07-31T00:56:57;16.30;99.90
14682;DHT22;7429;52.498;13.480;2023-07-31T01:00:00;16.30;99.90
14682;DHT22;7429;52.498;13.480;2023-07-31T01:03:05;16.30;99.90
14682;DHT22;7429;52.498;13.480;2023-07-31T01:06:14;16.30;99.90
14682;DHT22;7429;52.498;13.480;2023-07-31T01:09:29;16.30;99.90
14682;DHT22;7429;52.498;13.480;2023-07-31T01:12:38;16.30;99.90
14682;DHT22;7429;52.498;13.480;2023-07-31T01:15:41;16.30;99.90
14682;DHT22;7429;52.498;13.480;2023-07-31T01:18:45;16.30;99.90
14682;DHT22;7429;52.498;13.480;2023-07-31T01:21:59;16.30;99.90
14682;DHT22;7429;52.498;13.480;2023-07-31T01:25:31;16.20;99.90
14682;DHT22;7429;52.498;13.480;2023-07-31T01:28:59;16.20;99.90
14682;DHT22;7429;52.498;13.480;2023-07-31T01:32:06;16.20;99.90
14682;DHT22;7429;52.498;13.480;2023-07-31T01:35:11;16.20;99.90
14682;DHT22;7429;52.498;13.480;2023-07-31T01:38:15;16.20;99.90
14682;DHT22;7429;52.498;13.480;2023-07-31T01:41:23;16.20;99.90
14682;DHT22;7429;52.498;13.480;2023-07-31T01:44:26;16.20;99.90
14682;DHT22;7429;52.498;13.480;2023-07-31T01:47:30;16.20;99.90
14682;DHT22;7429;52.498;13.480;2023-07-31T01:50:33;16.20;99.90
14682;DHT22;7429;52.498;13.480;2023-07-31T01:53:36;16.30;99.90
14682;DHT22;7429;52.498;13.480;2023-07-31T01:56:40;16.40;99.90
14682;DHT22;7429;52.498;13.480;2023-07-31T01:59:44;16.40;99.90
14682;DHT22;7429;52.498;13.480;2023-07-31T02:02:47;16.40;99.90
14682;DHT22;7429;52.498;13.480;2023-07-31T02:05:50;16.40;99.90
14682;DHT22;7429;52.498;13.480;2023-07-31T02:08:53;16.40;99.90
14682;DHT22;7429;52.498;13.480;2023-07-31T02:11:58;16.40;99.90
14682;DHT22;7429;52.498;13.480;2023-07-31T02:15:01;16.50;99.90
14682;DHT22;7429;52.498;13.480;2023-07-31T02:18:05;16.50;99.90
14682;DHT22;7429;52.498;13.480;2023-07-31T02:21:10;16.50;99.90
14682;DHT22;7429;52.498;13.480;2023-07-31T02:24:13;16.60;99.90
14682;DHT22;7429;52.498;13.480;2023-07-31T02:27:18;16.50;99.90
14682;DHT22;7429;52.498;13.480;2023-07-31T02:30:21;16.60;99.90
14682;DHT22;7429;52.498;13.480;2023-07-31T02:33:24;16.50;99.90
14682;DHT22;7429;52.498;13.480;2023-07-31T02:36:28;16.60;99.90
14682;DHT22;7429;52.498;13.480;2023-07-31T02:39:31;16.60;99.90
14682;DHT22;7429;52.498;13.480;2023-07-31T02:42:35;16.60;99.90
14682;DHT22;7429;52.498;13.480;2023-07-31T02:45:41;16.60;99.90
14682;DHT22;7429;52.498;13.480;2023-07-31T02:48:45;16.50;99.90
14682;DHT22;7429;52.498;13.480;2023-07-31T02:51:48;16.50;99.90
14682;DHT22;7429;52.498;13.480;2023-07-31T02:54:52;16.50;99.90
14682;DHT22;7429;52.498;13.480;2023-07-31T02:57:56;16.50;99.90
14682;DHT22;7429;52.498;13.480;2023-07-31T03:01:01;16.50;99.90
14682;DHT22;7429;52.498;13.480;2023-07-31T03:04:04;16.50;99.90
14682;DHT22;7429;52.498;13.480;2023-07-31T03:07:07;16.40;99.90
14682;DHT22;7429;52.498;13.480;2023-07-31T03:10:10;16.40;99.90
14682;DHT22;7429;52.498;13.480;2023-07-31T03:13:15;16.30;99.90
14682;DHT22;7429;52.498;13.480;2023-07-31T03:16:18;16.30;99.90
14682;DHT22;7429;52.498;13.480;2023-07-31T03:19:21;16.30;99.90
14682;DHT22;7429;52.498;13.480;2023-07-31T03:22:24;16.30;99.90
14682;DHT22;7429;52.498;13.480;2023-07-31T03:25:27;16.20;99.90
14682;DHT22;7429;52.498;13.480;2023-07-31T03:28:32;16.20;99.90
14682;DHT22;7429;52.498;13.480;2023-07-31T03:31:36;16.20;99.90
14682;DHT22;7429;52.498;13.480;2023-07-31T03:34:40;16.20;99.90
14682;DHT22;7429;52.498;13.480;2023-07-31T03:37:43;16.20;99.90
14682;DHT22;7429;52.498;13.480;2023-07-31T03:40:49;16.20;99.90
14682;DHT22;7429;52.498;13.480;2023-07-31T03:43:53;16.20;99.90
14682;DHT22;7429;52.498;13.480;2023-07-31T03:46:58;16.20;99.90
14682;DHT22;7429;52.498;13.480;2023-07-31T03:50:01;16.30;99.90
14682;DHT22;7429;52.498;13.480;2023-07-31T03:53:04;16.30;99.90
14682;DHT22;7429;52.498;13.480;2023-07-31T03:56:08;16.30;99.90
14682;DHT22;7429;52.498;13.480;2023-07-31T03:59:12;16.20;99.90
14682;DHT22;7429;52.498;13.480;2023-07-31T04:02:15;16.20;99.90
14682;DHT22;7429;52.498;13.480;2023-07-31T04:05:20;16.20;99.90
14682;DHT22;7429;52.498;13.480;2023-07-31T04:08:24;16.30;99.90
14682;DHT22;7429;52.498;13.480;2023-07-31T04:11:27;16.30;99.90
14682;DHT22;7429;52.498;13.480;2023-07-31T04:14:31;16.30;99.90
14682;DHT22;7429;52.498;13.480;2023-07-31T04:17:35;16.30;99.90
14682;DHT22;7429;52.498;13.480;2023-07-31T04:20:38;16.30;99.90
14682;DHT22;7429;52.498;13.480;2023-07-31T04:23:42;16.30;99.90
14682;DHT22;7429;52.498;13.480;2023-07-31T04:26:45;16.30;99.90
14682;DHT22;7429;52.498;13.480;2023-07-31T04:29:50;16.30;99.90
14682;DHT22;7429;52.498;13.480;2023-07-31T04:32:53;16.30;99.90
14682;DHT22;7429;52.498;13.480;2023-07-31T04:35:56;16.40;99.90
14682;DHT22;7429;52.498;13.480;2023-07-31T04:39:00;16.30;99.90
14682;DHT22;7429;52.498;13.480;2023-07-31T04:42:03;16.30;99.90
14682;DHT22;7429;52.498;13.480;2023-07-31T04:45:09;16.30;99.90
14682;DHT22;7429;52.498;13.480;2023-07-31T04:48:12;16.30;99.90
14682;DHT22;7429;52.498;13.480;2023-07-31T04:51:16;16.30;99.90
14682;DHT22;7429;52.498;13.480;2023-07-31T04:54:19;16.30;99.90
14682;DHT22;7429;52.498;13.480;2023-07-31T04:57:22;16.30;99.90
14682;DHT22;7429;52.498;13.480;2023-07-31T05:00:26;16.30;99.90
14682;DHT22;7429;52.498;13.480;2023-07-31T05:03:31;16.30;99.90
14682;DHT22;7429;52.498;13.480;2023-07-31T05:06:34;16.30;99.90
14682;DHT22;7429;52.498;13.480;2023-07-31T05:09:37;16.30;99.90
14682;DHT22;7429;52.498;13.480;2023-07-31T05:12:41;16.40;99.90
14682;DHT22;7429;52.498;13.480;2023-07-31T05:15:45;16.40;99.90
14682;DHT22;7429;52.498;13.480;2023-07-31T05:18:51;16.40;99.90
14682;DHT22;7429;52.498;13.480;2023-07-31T05:21:54;16.50;99.90
14682;DHT22;7429;52.498;13.480;2023-07-31T05:24:57;16.50;99.90
14682;DHT22;7429;52.498;13.480;2023-07-31T05:28:00;16.50;99.90
14682;DHT22;7429;52.498;13.480;2023-07-31T05:31:05;16.50;99.90
14682;DHT22;7429;52.498;13.480;2023-07-31T05:34:09;16.50;99.90
14682;DHT22;7429;52.498;13.480;2023-07-31T05:37:12;16.50;99.90
14682;DHT22;7429;52.498;13.480;2023-07-31T05:40:15;16.50;99.90
14682;DHT22;7429;52.498;13.480;2023-07-31T05:43:18;16.50;99.90
14682;DHT22;7429;52.498;13.480;2023-07-31T05:46:22;16.60;99.90
14682;DHT22;7429;52.498;13.480;2023-07-31T05:49:28;16.60;99.90
14682;DHT22;7429;52.498;13.480;2023-07-31T05:52:31;16.50;99.90
14682;DHT22;7429;52.498;13.480;2023-07-31T05:55:34;16.50;99.90
14682;DHT22;7429;52.498;13.480;2023-07-31T05:58:38;16.60;99.90
14682;DHT22;7429;52.498;13.480;2023-07-31T06:01:42;16.60;99.90
14682;DHT22;7429;52.498;13.480;2023-07-31T06:04:45;16.60;99.90
14682;DHT22;7429;52.498;13.480;2023-07-31T06:07:49;16.60;99.90
14682;DHT22;7429;52.498;13.480;2023-07-31T06:10:52;16.60;99.90
14682;DHT22;7429;52.498;13.480;2023-07-31T06:13:56;16.70;99.90
14682;DHT22;7429;52.498;13.480;2023-07-31T06:17:00;16.70;99.90
14682;DHT22;7429;52.498;13.480;2023-07-31T06:20:05;16.70;99.90
14682;DHT22;7429;52.498;13.480;2023-07-31T06:23:09;16.60;99.90
14682;DHT22;7429;52.498;13.480;2023-07-31T06:26:12;16.60;99.90
14682;DHT22;7429;52.498;13.480;2023-07-31T06:29:16;16.60;99.90
14682;DHT22;7429;52.498;13.480;2023-07-31T06:32:20;16.60;99.90
14682;DHT22;7429;52.498;13.480;2023-07-31T06:35:23;16.70;99.90
14682;DHT22;7429;52.498;13.480;2023-07-31T06:38:27;16.70;99.90
14682;DHT22;7429;52.498;13.480;2023-07-31T06:41:32;16.70;99.90
14682;DHT22;7429;52.498;13.480;2023-07-31T06:44:39;16.70;99.90
14682;DHT22;7429;52.498;13.480;2023-07-31T06:47:43;16.80;99.90
14682;DHT22;7429;52.498;13.480;2023-07-31T06:50:47;16.80;99.90
14682;DHT22;7429;52.498;13.480;2023-07-31T06:53:50;16.80;99.90
14682;DHT22;7429;52.498;13.480;2023-07-31T06:56:53;16.90;99.90
14682;DHT22;7429;52.498;13.480;2023-07-31T06:59:56;16.90;99.90
14682;DHT22;7429;52.498;13.480;2023-07-31T07:03:01;16.90;99.90
14682;DHT22;7429;52.498;13.480;2023-07-31T07:06:06;17.00;99.90
14682;DHT22;7429;52.498;13.480;2023-07-31T07:09:09;17.00;99.90
14682;DHT22;7429;52.498;13.480;2023-07-31T07:12:13;17.00;99.90
14682;DHT22;7429;52.498;13.480;2023-07-31T07:15:16;17.00;99.90
14682;DHT22;7429;52.498;13.480;2023-07-31T07:18:20;17.00;99.90
14682;DHT22;7429;52.498;13.480;2023-07-31T07:21:23;17.10;99.90
14682;DHT22;7429;52.498;13.480;2023-07-31T07:24:26;17.00;99.90
14682;DHT22;7429;52.498;13.480;2023-07-31T07:27:29;17.00;99.90
14682;DHT22;7429;52.498;13.480;2023-07-31T07:30:33;17.00;99.90
14682;DHT22;7429;52.498;13.480;2023-07-31T07:33:37;17.00;99.90
14682;DHT22;7429;52.498;13.480;2023-07-31T07:36:41;17.10;99.90
14682;DHT22;7429;52.498;13.480;2023-07-31T07:39:44;17.10;99.90
14682;DHT22;7429;52.498;13.480;2023-07-31T07:42:48;17.10;99.90
14682;DHT22;7429;52.498;13.480;2023-07-31T07:45:51;17.10;99.90
14682;DHT22;7429;52.498;13.480;2023-07-31T07:48:56;17.10;99.90
14682;DHT22;7429;52.498;13.480;2023-07-31T07:51:59;17.30;99.90
14682;DHT22;7429;52.498;13.480;2023-07-31T07:55:02;17.40;99.90
14682;DHT22;7429;52.498;13.480;2023-07-31T07:58:07;17.50;99.90
14682;DHT22;7429;52.498;13.480;2023-07-31T08:01:10;17.40;99.90
14682;DHT22;7429;52.498;13.480;2023-07-31T08:04:15;17.40;99.90
14682;DHT22;7429;52.498;13.480;2023-07-31T08:07:18;17.50;99.90
14682;DHT22;7429;52.498;13.480;2023-07-31T08:10:21;17.40;99.90
14682;DHT22;7429;52.498;13.480;2023-07-31T08:13:26;17.40;99.90
14682;DHT22;7429;52.498;13.480;2023-07-31T08:16:32;17.50;99.90
14682;DHT22;7429;52.498;13.480;2023-07-31T08:19:37;17.60;99.90
14682;DHT22;7429;52.498;13.480;2023-07-31T08:22:40;17.50;99.90
14682;DHT22;7429;52.498;13.480;2023-07-31T08:25:45;17.50;99.90
14682;DHT22;7429;52.498;13.480;2023-07-31T08:28:48;17.50;99.90
14682;DHT22;7429;52.498;13.480;2023-07-31T08:31:51;17.60;99.90
14682;DHT22;7429;52.498;13.480;2023-07-31T08:34:56;17.60;99.90
14682;DHT22;7429;52.498;13.480;2023-07-31T08:37:59;17.60;99.90
14682;DHT22;7429;52.498;13.480;2023-07-31T08:41:03;17.50;99.90
14682;DHT22;7429;52.498;13.480;2023-07-31T08:44:07;17.60;99.90
14682;DHT22;7429;52.498;13.480;2023-07-31T08:47:10;17.60;99.90
14682;DHT22;7429;52.498;13.480;2023-07-31T08:50:17;17.70;99.90
14682;DHT22;7429;52.498;13.480;2023-07-31T08:53:21;17.80;99.90
14682;DHT22;7429;52.498;13.480;2023-07-31T08:56:25;17.80;99.90
14682;DHT22;7429;52.498;13.480;2023-07-31T08:59:31;17.80;99.90
14682;DHT22;7429;52.498;13.480;2023-07-31T09:02:38;17.80;99.90
14682;DHT22;7429;52.498;13.480;2023-07-31T09:05:46;17.90;99.90
14682;DHT22;7429;52.498;13.480;2023-07-31T09:08:49;18.00;99.90
14682;DHT22;7429;52.498;13.480;2023-07-31T09:11:53;18.00;99.90
14682;DHT22;7429;52.498;13.480;2023-07-31T09:14:58;18.00;99.90
14682;DHT22;7429;52.498;13.480;2023-07-31T09:18:02;18.00;99.90
14682;DHT22;7429;52.498;13.480;2023-07-31T09:21:08;18.10;99.90
14682;DHT22;7429;52.498;13.480;2023-07-31T09:24:25;18.20;99.90
14682;DHT22;7429;52.498;13.480;2023-07-31T09:27:45;18.20;99.90
14682;DHT22;7429;52.498;13.480;2023-07-31T09:30:51;18.10;99.90
14682;DHT22;7429;52.498;13.480;2023-07-31T09:33:55;18.10;99.90
14682;DHT22;7429;52.498;13.480;2023-07-31T09:37:02;18.20;99.90
14682;DHT22;7429;52.498;13.480;2023-07-31T09:40:06;18.20;99.90
14682;DHT22;7429;52.498;13.480;2023-07-31T09:43:11;18.10;99.90
14682;DHT22;7429;52.498;13.480;2023-07-31T09:46:15;18.10;99.90
14682;DHT22;7429;52.498;13.480;2023-07-31T09:49:18;17.90;99.90
14682;DHT22;7429;52.498;13.480;2023-07-31T09:52:26;17.80;99.90
14682;DHT22;7429;52.498;13.480;2023-07-31T09:55:29;17.80;99.90
14682;DHT22;7429;52.498;13.480;2023-07-31T09:58:34;17.80;99.90
14682;DHT22;7429;52.498;13.480;2023-07-31T10:01:39;17.80;99.90
14682;DHT22;7429;52.498;13.480;2023-07-31T10:04:44;17.80;99.90
14682;DHT22;7429;52.498;13.480;2023-07-31T10:07:54;17.90;99.90
14682;DHT22;7429;52.498;13.480;2023-07-31T10:10:59;18.00;99.90
14682;DHT22;7429;52.498;13.480;2023-07-31T10:14:05;18.00;99.90
14682;DHT22;7429;52.498;13.480;2023-07-31T10:17:09;18.20;99.90
14682;DHT22;7429;52.498;13.480;2023-07-31T10:20:14;18.30;99.90
14682;DHT22;7429;52.498;13.480;2023-07-31T10:23:20;18.30;99.90
14682;DHT22;7429;52.498;13.480;2023-07-31T10:26:25;18.30;99.90
14682;DHT22;7429;52.498;13.480;2023-07-31T10:29:29;18.30;99.90
14682;DHT22;7429;52.498;13.480;2023-07-31T10:32:32;18.40;99.90
14682;DHT22;7429;52.498;13.480;2023-07-31T10:35:36;18.40;99.90
14682;DHT22;7429;52.498;13.480;2023-07-31T10:38:40;18.40;99.90
14682;DHT22;7429;52.498;13.480;2023-07-31T10:41:43;18.40;99.90
14682;DHT22;7429;52.498;13.480;2023-07-31T10:44:47;18.50;99.90
14682;DHT22;7429;52.498;13.480;2023-07-31T10:47:50;18.50;99.90
14682;DHT22;7429;52.498;13.480;2023-07-31T10:51:06;18.60;99.90
14682;DHT22;7429;52.498;13.480;2023-07-31T10:54:15;18.70;99.90
14682;DHT22;7429;52.498;13.480;2023-07-31T10:57:20;18.90;99.90
14682;DHT22;7429;52.498;13.480;2023-07-31T11:00:26;19.30;99.90
14682;DHT22;7429;52.498;13.480;2023-07-31T11:03:44;19.50;99.90
14682;DHT22;7429;52.498;13.480;2023-07-31T11:06:57;19.70;99.90
14682;DHT22;7429;52.498;13.480;2023-07-31T11:10:02;19.80;99.90
14682;DHT22;7429;52.498;13.480;2023-07-31T11:13:06;20.00;99.90
14682;DHT22;7429;52.498;13.480;2023-07-31T11:16:10;20.10;99.90
14682;DHT22;7429;52.498;13.480;2023-07-31T11:19:14;20.20;99.90
14682;DHT22;7429;52.498;13.480;2023-07-31T11:22:17;20.30;99.90
14682;DHT22;7429;52.498;13.480;2023-07-31T11:25:34;20.20;99.90
14682;DHT22;7429;52.498;13.480;2023-07-31T11:28:37;20.20;99.90
14682;DHT22;7429;52.498;13.480;2023-07-31T11:31:42;20.30;99.90
14682;DHT22;7429;52.498;13.480;2023-07-31T11:34:52;20.50;99.90
14682;DHT22;7429;52.498;13.480;2023-07-31T11:37:55;20.50;99.90
14682;DHT22;7429;52.498;13.480;2023-07-31T11:41:01;20.50;99.90
14682;DHT22;7429;52.498;13.480;2023-07-31T11:44:05;20.50;99.90
14682;DHT22;7429;52.498;13.480;2023-07-31T11:47:28;20.60;99.90
14682;DHT22;7429;52.498;13.480;2023-07-31T11:50:33;20.50;99.90
14682;DHT22;7429;52.498;13.480;2023-07-31T11:53:42;20.50;99.90
14682;DHT22;7429;52.498;13.480;2023-07-31T11:56:47;20.40;99.90
14682;DHT22;7429;52.498;13.480;2023-07-31T11:59:52;20.40;99.90
14682;DHT22;7429;52.498;13.480;2023-07-31T12:02:55;20.40;99.90
14682;DHT22;7429;52.498;13.480;2023-07-31T12:05:58;20.40;99.90
14682;DHT22;7429;52.498;13.480;2023-07-31T12:09:03;20.50;99.90
14682;DHT22;7429;52.498;13.480;2023-07-31T12:12:09;20.50;99.90
14682;DHT22;7429;52.498;13.480;2023-07-31T12:15:15;20.50;99.90
14682;DHT22;7429;52.498;13.480;2023-07-31T12:18:20;20.40;99.90
14682;DHT22;7429;52.498;13.480;2023-07-31T12:21:23;20.50;99.90
14682;DHT22;7429;52.498;13.480;2023-07-31T12:24:30;20.50;99.90
14682;DHT22;7429;52.498;13.480;2023-07-31T12:27:34;20.50;99.90
14682;DHT22;7429;52.498;13.480;2023-07-31T12:30:38;20.60;99.90
14682;DHT22;7429;52.498;13.480;2023-07-31T12:33:42;20.70;99.90
14682;DHT22;7429;52.498;13.480;2023-07-31T12:36:46;20.70;99.90
14682;DHT22;7429;52.498;13.480;2023-07-31T12:39:50;20.80;99.90
14682;DHT22;7429;52.498;13.480;2023-07-31T12:42:54;20.80;99.90
14682;DHT22;7429;52.498;13.480;2023-07-31T12:45:58;20.80;99.90
14682;DHT22;7429;52.498;13.480;2023-07-31T12:49:01;20.80;99.90
14682;DHT22;7429;52.498;13.480;2023-07-31T12:52:05;20.90;99.90
14682;DHT22;7429;52.498;13.480;2023-07-31T12:55:09;21.00;99.90
14682;DHT22;7429;52.498;13.480;2023-07-31T12:58:14;21.10;99.90
14682;DHT22;7429;52.498;13.480;2023-07-31T13:01:17;21.20;99.90
14682;DHT22;7429;52.498;13.480;2023-07-31T13:04:21;21.30;99.90
14682;DHT22;7429;52.498;13.480;2023-07-31T13:07:24;21.30;99.90
14682;DHT22;7429;52.498;13.480;2023-07-31T13:10:30;21.20;99.90
14682;DHT22;7429;52.498;13.480;2023-07-31T13:13:34;21.10;99.90
14682;DHT22;7429;52.498;13.480;2023-07-31T13:16:37;21.10;99.90
14682;DHT22;7429;52.498;13.480;2023-07-31T13:19:41;21.00;99.90
14682;DHT22;7429;52.498;13.480;2023-07-31T13:22:44;20.90;99.90
14682;DHT22;7429;52.498;13.480;2023-07-31T13:25:48;20.90;99.90
14682;DHT22;7429;52.498;13.480;2023-07-31T13:28:54;20.80;99.90
14682;DHT22;7429;52.498;13.480;2023-07-31T13:31:57;20.70;99.90
14682;DHT22;7429;52.498;13.480;2023-07-31T13:35:01;20.60;99.90
14682;DHT22;7429;52.498;13.480;2023-07-31T13:38:05;20.60;99.90
14682;DHT22;7429;52.498;13.480;2023-07-31T13:41:08;20.60;99.90
14682;DHT22;7429;52.498;13.480;2023-07-31T13:44:13;20.80;99.90
14682;DHT22;7429;52.498;13.480;2023-07-31T13:47:22;21.10;99.90
14682;DHT22;7429;52.498;13.480;2023-07-31T13:50:25;21.20;99.90
14682;DHT22;7429;52.498;13.480;2023-07-31T13:53:28;21.50;99.90
14682;DHT22;7429;52.498;13.480;2023-07-31T13:56:31;21.60;99.90
14682;DHT22;7429;52.498;13.480;2023-07-31T13:59:36;21.60;99.90
14682;DHT22;7429;52.498;13.480;2023-07-31T14:02:39;21.70;99.90
14682;DHT22;7429;52.498;13.480;2023-07-31T14:05:45;21.70;99.90
14682;DHT22;7429;52.498;13.480;2023-07-31T14:08:48;21.70;99.90
14682;DHT22;7429;52.498;13.480;2023-07-31T14:11:51;21.50;99.90
14682;DHT22;7429;52.498;13.480;2023-07-31T14:14:56;21.50;99.90
14682;DHT22;7429;52.498;13.480;2023-07-31T14:17:59;21.50;99.90
14682;DHT22;7429;52.498;13.480;2023-07-31T14:21:03;21.60;99.90
14682;DHT22;7429;52.498;13.480;2023-07-31T14:24:09;21.60;99.90
14682;DHT22;7429;52.498;13.480;2023-07-31T14:27:12;21.60;99.90
14682;DHT22;7429;52.498;13.480;2023-07-31T14:30:17;21.60;99.90
14682;DHT22;7429;52.498;13.480;2023-07-31T14:33:20;21.60;99.90
14682;DHT22;7429;52.498;13.480;2023-07-31T14:36:23;21.50;99.90
14682;DHT22;7429;52.498;13.480;2023-07-31T14:39:27;21.50;99.90
14682;DHT22;7429;52.498;13.480;2023-07-31T14:42:32;21.50;99.90
14682;DHT22;7429;52.498;13.480;2023-07-31T14:45:37;21.50;99.90
14682;DHT22;7429;52.498;13.480;2023-07-31T14:48:40;21.60;99.90
14682;DHT22;7429;52.498;13.480;2023-07-31T14:51:43;21.70;99.90
14682;DHT22;7429;52.498;13.480;2023-07-31T14:54:46;21.70;99.90
14682;DHT22;7429;52.498;13.480;2023-07-31T14:57:49;21.70;99.90
14682;DHT22;7429;52.498;13.480;2023-07-31T15:00:53;21.60;99.90
14682;DHT22;7429;52.498;13.480;2023-07-31T15:03:56;21.60;99.90
14682;DHT22;7429;52.498;13.480;2023-07-31T15:07:01;21.60;99.90
14682;DHT22;7429;52.498;13.480;2023-07-31T15:10:05;21.60;99.90
14682;DHT22;7429;52.498;13.480;2023-07-31T15:13:09;21.50;99.90
14682;DHT22;7429;52.498;13.480;2023-07-31T15:16:14;21.40;99.90
14682;DHT22;7429;52.498;13.480;2023-07-31T15:19:22;21.50;99.90
14682;DHT22;7429;52.498;13.480;2023-07-31T15:22:26;21.50;99.90
14682;DHT22;7429;52.498;13.480;2023-07-31T15:25:29;21.40;99.90
14682;DHT22;7429;52.498;13.480;2023-07-31T15:28:35;21.30;99.90
14682;DHT22;7429;52.498;13.480;2023-07-31T15:31:45;21.30;99.90
14682;DHT22;7429;52.498;13.480;2023-07-31T15:34:53;21.20;99.90
14682;DHT22;7429;52.498;13.480;2023-07-31T15:37:56;21.20;99.90
14682;DHT22;7429;52.498;13.480;2023-07-31T15:40:59;21.10;99.90
14682;DHT22;7429;52.498;13.480;2023-07-31T15:44:02;21.20;99.90
14682;DHT22;7429;52.498;13.480;2023-07-31T15:47:07;21.20;99.90
14682;DHT22;7429;52.498;13.480;2023-07-31T15:50:10;21.20;99.90
14682;DHT22;7429;52.498;13.480;2023-07-31T15:53:14;21.10;99.90
14682;DHT22;7429;52.498;13.480;2023-07-31T15:56:17;21.20;99.90
14682;DHT22;7429;52.498;13.480;2023-07-31T15:59:21;21.20;99.90
14682;DHT22;7429;52.498;13.480;2023-07-31T16:02:25;21.20;99.90
14682;DHT22;7429;52.498;13.480;2023-07-31T16:05:28;21.10;99.90
14682;DHT22;7429;52.498;13.480;2023-07-31T16:08:39;21.10;99.90
14682;DHT22;7429;52.498;13.480;2023-07-31T16:11:43;21.10;99.90
14682;DHT22;7429;52.498;13.480;2023-07-31T16:14:48;21.10;99.90
14682;DHT22;7429;52.498;13.480;2023-07-31T16:17:51;21.20;99.90
14682;DHT22;7429;52.498;13.480;2023-07-31T16:20:58;21.10;99.90
14682;DHT22;7429;52.498;13.480;2023-07-31T16:24:03;21.00;99.90
14682;DHT22;7429;52.498;13.480;2023-07-31T16:27:07;21.00;99.90
14682;DHT22;7429;52.498;13.480;2023-07-31T16:30:10;20.90;99.90
14682;DHT22;7429;52.498;13.480;2023-07-31T16:33:13;20.90;99.90
14682;DHT22;7429;52.498;13.480;2023-07-31T16:36:17;20.90;99.90
14682;DHT22;7429;52.498;13.480;2023-07-31T16:39:24;21.00;99.90
14682;DHT22;7429;52.498;13.480;2023-07-31T16:42:28;20.80;99.90
14682;DHT22;7429;52.498;13.480;2023-07-31T16:45:31;20.90;99.90
14682;DHT22;7429;52.498;13.480;2023-07-31T16:48:35;20.90;99.90
14682;DHT22;7429;52.498;13.480;2023-07-31T16:51:38;20.90;99.90
14682;DHT22;7429;52.498;13.480;2023-07-31T16:54:43;20.90;99.90
14682;DHT22;7429;52.498;13.480;2023-07-31T16:57:46;21.00;99.90
14682;DHT22;7429;52.498;13.480;2023-07-31T17:01:01;21.10;99.90
14682;DHT22;7429;52.498;13.480;2023-07-31T17:04:09;21.10;99.90
14682;DHT22;7429;52.498;13.480;2023-07-31T17:07:15;21.10;99.90
14682;DHT22;7429;52.498;13.480;2023-07-31T17:10:20;21.20;99.90
14682;DHT22;7429;52.498;13.480;2023-07-31T17:13:24;21.20;99.90
14682;DHT22;7429;52.498;13.480;2023-07-31T17:16:32;21.20;99.90
14682;DHT22;7429;52.498;13.480;2023-07-31T17:19:36;21.20;99.90
14682;DHT22;7429;52.498;13.480;2023-07-31T17:22:39;21.20;99.90
14682;DHT22;7429;52.498;13.480;2023-07-31T17:25:51;21.20;99.90
14682;DHT22;7429;52.498;13.480;2023-07-31T17:28:57;21.20;99.90
14682;DHT22;7429;52.498;13.480;2023-07-31T17:32:01;21.20;99.90
14682;DHT22;7429;52.498;13.480;2023-07-31T17:35:10;21.20;99.90
14682;DHT22;7429;52.498;13.480;2023-07-31T17:38:13;21.20;99.90
14682;DHT22;7429;52.498;13.480;2023-07-31T17:41:20;21.20;99.90
14682;DHT22;7429;52.498;13.480;2023-07-31T17:44:24;21.10;99.90
14682;DHT22;7429;52.498;13.480;2023-07-31T17:47:27;21.00;99.90
14682;DHT22;7429;52.498;13.480;2023-07-31T17:50:30;20.80;99.90
14682;DHT22;7429;52.498;13.480;2023-07-31T17:53:34;20.60;99.90
14682;DHT22;7429;52.498;13.480;2023-07-31T17:56:38;20.50;99.90
14682;DHT22;7429;52.498;13.480;2023-07-31T17:59:42;20.40;99.90
14682;DHT22;7429;52.498;13.480;2023-07-31T18:02:46;20.40;99.90
14682;DHT22;7429;52.498;13.480;2023-07-31T18:05:50;20.40;99.90
14682;DHT22;7429;52.498;13.480;2023-07-31T18:08:53;20.40;99.90
14682;DHT22;7429;52.498;13.480;2023-07-31T18:11:58;20.30;99.90
14682;DHT22;7429;52.498;13.480;2023-07-31T18:15:01;20.40;99.90
14682;DHT22;7429;52.498;13.480;2023-07-31T18:18:04;20.40;99.90
14682;DHT22;7429;52.498;13.480;2023-07-31T18:21:08;20.40;99.90
14682;DHT22;7429;52.498;13.480;2023-07-31T18:24:11;20.40;99.90
14682;DHT22;7429;52.498;13.480;2023-07-31T18:27:15;20.30;99.90
14682;DHT22;7429;52.498;13.480;2023-07-31T18:30:19;20.30;99.90
14682;DHT22;7429;52.498;13.480;2023-07-31T18:33:22;20.20;99.90
14682;DHT22;7429;52.498;13.480;2023-07-31T18:36:26;20.20;99.90
14682;DHT22;7429;52.498;13.480;2023-07-31T18:39:29;20.20;99.90
14682;DHT22;7429;52.498;13.480;2023-07-31T18:42:33;20.30;99.90
14682;DHT22;7429;52.498;13.480;2023-07-31T18:45:36;20.30;99.90
14682;DHT22;7429;52.498;13.480;2023-07-31T18:48:40;20.30;99.90
14682;DHT22;7429;52.498;13.480;2023-07-31T18:51:43;20.20;99.90
14682;DHT22;7429;52.498;13.480;2023-07-31T18:54:48;20.20;99.90
14682;DHT22;7429;52.498;13.480;2023-07-31T18:57:53;20.20;99.90
14682;DHT22;7429;52.498;13.480;2023-07-31T19:00:56;20.20;99.90
14682;DHT22;7429;52.498;13.480;2023-07-31T19:03:59;20.20;99.90
14682;DHT22;7429;52.498;13.480;2023-07-31T19:07:03;20.30;99.90
14682;DHT22;7429;52.498;13.480;2023-07-31T19:10:07;20.20;99.90
14682;DHT22;7429;52.498;13.480;2023-07-31T19:13:19;20.20;99.90
14682;DHT22;7429;52.498;13.480;2023-07-31T19:16:22;20.10;99.90
14682;DHT22;7429;52.498;13.480;2023-07-31T19:19:25;20.10;99.90
14682;DHT22;7429;52.498;13.480;2023-07-31T19:22:28;20.10;99.90
14682;DHT22;7429;52.498;13.480;2023-07-31T19:25:31;20.00;99.90